Time;durP1;ratioP1;P1;durP2;ratioP2;P2;SDS_P1;SDS_P2;PMS_P1;PMS_P2;Temp;Humidity;BMP_temperature;BMP_pressure;BME280_temperature;BME280_humidity;BME280_pressure;Samples;Min_cycle;Max_cycle;Signal;HPM_P1;HPM_P2
2023/01/30 00:02:00;;;;;;;31.60;18.50;;;3.50;99.90;;;;;;5107794;27;20226;-67
2023/01/30 00:04:49;;;;;;;30.10;18.83;;;3.50;99.90;;;;;;5101974;27;20219;-68
2023/01/30 00:07:38;;;;;;;28.77;18.50;;;3.40;99.90;;;;;;5093565;27;21107;-68
2023/01/30 00:10:26;;;;;;;30.03;18.00;;;3.50;99.90;;;;;;5099414;28;20215;-70
2023/01/30 00:13:16;;;;;;;26.80;17.97;;;3.40;99.90;;;;;;5096370;27;20367;-70
2023/01/30 00:16:05;;;;;;;26.70;17.53;;;3.50;99.90;;;;;;5093264;27;20618;-68
2023/01/30 00:18:55;;;;;;;25.93;17.47;;;3.60;99.90;;;;;;5099054;27;20230;-69
2023/01/30 00:21:44;;;;;;;25.63;17.17;;;3.50;99.90;;;;;;5094332;27;20218;-68
2023/01/30 00:24:33;;;;;;;24.50;16.30;;;3.60;99.90;;;;;;5075075;28;20233;-69
2023/01/30 00:27:21;;;;;;;25.90;16.33;;;3.50;99.90;;;;;;5107747;27;20249;-69
2023/01/30 00:30:11;;;;;;;23.93;16.13;;;3.40;99.90;;;;;;5092598;27;20637;-69
2023/01/30 00:33:00;;;;;;;27.30;17.40;;;3.50;99.90;;;;;;5092934;27;20713;-68
2023/01/30 00:35:51;;;;;;;25.73;16.40;;;3.50;99.90;;;;;;5086627;27;21694;-68
2023/01/30 00:38:40;;;;;;;28.03;17.30;;;3.40;99.90;;;;;;5084399;28;20368;-69
2023/01/30 00:47:04;;;;;;;27.17;16.83;;;3.50;99.90;;;;;;5096255;27;20226;-67
2023/01/30 00:47:44;;;;;;;25.37;16.83;;;3.60;99.90;;;;;;5091282;27;20215;-67
2023/01/30 00:50:42;;;;;;;25.77;16.77;;;3.50;99.90;;;;;;5081928;27;20657;-69
2023/01/30 00:53:34;;;;;;;22.57;15.90;;;3.50;99.90;;;;;;5089457;27;20219;-67
2023/01/30 00:56:22;;;;;;;26.13;17.20;;;3.40;99.90;;;;;;5083282;27;20241;-69
2023/01/30 00:59:11;;;;;;;25.70;15.00;;;3.40;99.90;;;;;;5081957;27;20227;-68
2023/01/30 01:02:00;;;;;;;22.87;15.60;;;3.40;99.90;;;;;;5090075;27;20382;-67
2023/01/30 01:04:49;;;;;;;23.43;15.60;;;3.40;99.90;;;;;;5100955;28;20219;-68
2023/01/30 01:07:39;;;;;;;21.83;14.73;;;3.40;99.90;;;;;;5075891;27;20216;-68
2023/01/30 01:10:30;;;;;;;23.47;14.87;;;3.50;99.90;;;;;;5093488;27;20253;-68
2023/01/30 01:13:18;;;;;;;21.53;13.90;;;3.40;99.90;;;;;;5080927;27;20219;-68
2023/01/30 01:16:07;;;;;;;22.50;14.43;;;3.50;99.90;;;;;;5078959;28;20806;-67
2023/01/30 01:18:57;;;;;;;21.37;13.57;;;3.40;99.90;;;;;;5085276;28;20214;-66
2023/01/30 01:21:46;;;;;;;19.87;13.57;;;3.40;99.90;;;;;;5080064;28;20234;-68
2023/01/30 01:24:35;;;;;;;20.10;14.00;;;3.30;99.90;;;;;;5082644;27;20588;-66
2023/01/30 01:27:25;;;;;;;18.83;12.97;;;3.40;99.90;;;;;;5081086;28;20234;-68
2023/01/30 01:30:14;;;;;;;19.07;13.10;;;3.40;99.90;;;;;;5094943;27;20872;-69
2023/01/30 01:33:04;;;;;;;18.07;13.40;;;3.40;99.90;;;;;;5084225;28;20226;-66
2023/01/30 01:35:55;;;;;;;17.77;12.87;;;3.40;99.90;;;;;;5082827;28;20230;-67
2023/01/30 01:38:44;;;;;;;17.80;12.37;;;3.30;99.90;;;;;;5075450;27;20223;-68
2023/01/30 01:41:33;;;;;;;18.37;12.80;;;3.40;99.90;;;;;;5083218;28;20252;-67
2023/01/30 01:44:25;;;;;;;18.23;12.23;;;3.40;99.90;;;;;;5086245;27;20218;-67
2023/01/30 01:47:13;;;;;;;17.10;12.57;;;3.40;99.90;;;;;;5110761;27;20218;-68
2023/01/30 01:50:04;;;;;;;18.17;12.37;;;3.40;99.90;;;;;;5095181;27;20273;-67
2023/01/30 01:52:55;;;;;;;17.47;11.63;;;3.50;99.90;;;;;;5080123;28;20234;-68
2023/01/30 01:55:46;;;;;;;18.67;12.47;;;3.40;99.90;;;;;;5103423;27;20621;-69
2023/01/30 01:58:40;;;;;;;15.17;11.63;;;3.40;99.90;;;;;;5091838;27;20227;-69
2023/01/30 02:01:31;;;;;;;16.27;11.50;;;3.40;99.90;;;;;;5094574;27;20834;-69
2023/01/30 02:05:00;;;;;;;17.97;11.00;;;3.40;99.90;;;;;;5096514;27;20245;-69
2023/01/30 02:07:43;;;;;;;19.97;10.70;;;3.40;99.90;;;;;;5083053;27;20221;-67
2023/01/30 02:10:41;;;;;;;14.13;10.17;;;3.40;99.90;;;;;;5098367;27;20539;-69
2023/01/30 02:13:30;;;;;;;15.47;10.40;;;3.40;99.90;;;;;;5082772;28;20303;-69
2023/01/30 02:16:19;;;;;;;15.73;10.83;;;3.40;99.90;;;;;;5083419;27;20687;-68
2023/01/30 02:19:21;;;;;;;16.00;11.20;;;3.30;99.90;;;;;;5097210;27;20482;-68
2023/01/30 02:22:47;;;;;;;16.90;11.80;;;3.30;99.90;;;;;;5081784;28;20214;-68
2023/01/30 02:26:08;;;;;;;17.63;12.17;;;3.40;99.90;;;;;;5092933;27;20319;-68
2023/01/30 02:29:22;;;;;;;18.40;12.17;;;3.40;99.90;;;;;;5075440;27;20753;-68
2023/01/30 02:32:26;;;;;;;18.70;12.07;;;3.10;99.90;;;;;;5094250;28;20581;-69
2023/01/30 02:35:24;;;;;;;20.00;12.57;;;3.10;99.90;;;;;;5097332;28;20221;-70
2023/01/30 02:38:25;;;;;;;21.23;12.83;;;3.10;99.90;;;;;;5095314;27;20309;-69
2023/01/30 02:41:27;;;;;;;21.43;13.50;;;3.20;99.90;;;;;;5123534;27;20238;-68
2023/01/30 02:44:23;;;;;;;19.73;12.20;;;3.30;99.90;;;;;;5095586;28;20218;-68
2023/01/30 02:47:21;;;;;;;16.60;11.73;;;3.30;99.90;;;;;;5096147;27;20605;-68
2023/01/30 02:50:15;;;;;;;17.20;11.80;;;3.20;99.90;;;;;;5091160;27;20904;-69
2023/01/30 02:53:09;;;;;;;17.13;11.53;;;3.20;99.90;;;;;;5093630;27;20234;-68
2023/01/30 02:55:58;;;;;;;20.17;11.80;;;3.30;99.90;;;;;;5094443;27;20229;-69
2023/01/30 02:58:49;;;;;;;18.13;11.43;;;3.40;99.90;;;;;;5095689;27;20218;-68
2023/01/30 03:02:29;;;;;;;18.13;12.03;;;3.30;99.90;;;;;;5092270;28;20217;-67
2023/01/30 03:05:32;;;;;;;21.37;12.03;;;3.30;99.90;;;;;;5076204;28;20227;-68
2023/01/30 03:08:30;;;;;;;17.70;11.43;;;3.10;99.90;;;;;;5092109;27;20388;-69
2023/01/30 03:11:28;;;;;;;18.33;11.57;;;3.10;99.90;;;;;;5097085;28;20235;-70
2023/01/30 03:14:24;;;;;;;18.13;11.37;;;3.10;99.90;;;;;;5095537;27;20226;-70
2023/01/30 03:17:14;;;;;;;18.13;11.97;;;2.90;99.90;;;;;;5118385;27;20318;-69
2023/01/30 03:20:06;;;;;;;19.30;12.93;;;3.10;99.90;;;;;;5095284;28;20218;-68
2023/01/30 03:22:55;;;;;;;17.00;10.97;;;3.00;99.90;;;;;;5101012;27;20227;-68
2023/01/30 03:25:47;;;;;;;17.40;12.10;;;3.00;99.90;;;;;;5117952;27;20228;-69
2023/01/30 03:28:37;;;;;;;17.23;11.77;;;2.90;99.90;;;;;;5084638;28;20706;-69
2023/01/30 03:31:26;;;;;;;18.83;12.07;;;2.80;99.90;;;;;;5091055;27;20223;-69
2023/01/30 03:34:15;;;;;;;17.73;11.70;;;2.90;99.90;;;;;;5091672;27;20233;-69
2023/01/30 03:37:06;;;;;;;21.40;12.40;;;3.00;99.90;;;;;;5114496;27;20227;-69
2023/01/30 03:39:56;;;;;;;19.60;12.80;;;3.10;99.90;;;;;;5091036;28;20222;-68
2023/01/30 03:42:46;;;;;;;20.10;12.73;;;3.00;99.90;;;;;;5090764;27;20232;-68
2023/01/30 03:45:35;;;;;;;22.47;13.67;;;2.90;99.90;;;;;;5092502;27;20238;-68
2023/01/30 03:48:24;;;;;;;20.57;13.43;;;2.60;99.90;;;;;;5096903;27;20336;-68
2023/01/30 03:51:14;;;;;;;22.30;14.03;;;2.80;99.90;;;;;;5094410;27;20732;-68
2023/01/30 03:54:04;;;;;;;23.03;14.20;;;2.80;99.90;;;;;;5094770;28;20222;-68
2023/01/30 03:56:53;;;;;;;20.97;13.20;;;2.80;99.90;;;;;;5106984;27;20314;-69
2023/01/30 03:59:42;;;;;;;24.47;15.03;;;2.80;99.90;;;;;;5099776;27;20227;-68
2023/01/30 04:02:37;;;;;;;21.60;13.93;;;2.50;99.90;;;;;;5099416;28;20226;-69
2023/01/30 04:05:26;;;;;;;23.80;14.33;;;2.60;99.90;;;;;;5110182;27;20301;-68
2023/01/30 04:08:22;;;;;;;24.23;14.90;;;2.70;99.90;;;;;;5127126;27;20289;-67
2023/01/30 04:11:12;;;;;;;22.43;14.00;;;2.50;99.90;;;;;;5105703;27;20225;-66
2023/01/30 04:14:04;;;;;;;24.13;14.13;;;2.50;99.90;;;;;;5091135;28;21002;-67
2023/01/30 04:16:59;;;;;;;21.70;13.60;;;2.60;99.90;;;;;;5093514;28;20221;-67
2023/01/30 04:20:05;;;;;;;21.80;13.87;;;2.50;99.90;;;;;;5123274;27;20346;-68
2023/01/30 04:22:56;;;;;;;19.97;12.53;;;2.50;99.90;;;;;;5099281;27;20237;-67
2023/01/30 04:25:47;;;;;;;18.63;12.10;;;2.60;99.90;;;;;;5112091;27;20688;-67
2023/01/30 04:28:40;;;;;;;22.30;13.43;;;2.60;99.90;;;;;;5092937;27;20226;-69
2023/01/30 04:31:32;;;;;;;21.40;12.57;;;2.40;99.90;;;;;;5095420;27;20573;-68
2023/01/30 04:34:38;;;;;;;20.50;12.80;;;2.20;99.90;;;;;;5094634;27;20225;-67
2023/01/30 04:37:26;;;;;;;19.80;12.60;;;2.20;99.90;;;;;;5085997;28;20322;-68
2023/01/30 04:40:16;;;;;;;21.20;12.20;;;2.40;99.90;;;;;;5093869;27;20557;-66
2023/01/30 04:43:05;;;;;;;20.87;12.13;;;2.20;99.90;;;;;;5120505;27;20316;-68
2023/01/30 04:45:58;;;;;;;19.43;11.57;;;2.30;99.90;;;;;;5092208;28;20229;-66
2023/01/30 04:48:47;;;;;;;17.80;11.07;;;2.40;99.90;;;;;;5089867;28;20803;-67
2023/01/30 04:51:36;;;;;;;18.33;11.17;;;2.40;99.90;;;;;;5124160;27;20241;-67
2023/01/30 04:54:25;;;;;;;16.37;10.63;;;2.50;99.90;;;;;;5090193;27;20241;-69
2023/01/30 04:57:14;;;;;;;17.40;10.53;;;2.50;99.90;;;;;;5099388;27;20248;-69
2023/01/30 05:00:03;;;;;;;15.30;10.17;;;2.70;99.90;;;;;;5092724;28;20231;-68
2023/01/30 05:02:55;;;;;;;17.13;10.10;;;2.60;99.90;;;;;;5096855;28;20210;-68
2023/01/30 05:05:47;;;;;;;17.93;10.13;;;2.60;99.90;;;;;;5103093;27;20307;-67
2023/01/30 05:08:35;;;;;;;15.10;9.87;;;2.50;99.90;;;;;;5089405;28;20539;-69
2023/01/30 05:11:26;;;;;;;19.20;10.73;;;2.50;99.90;;;;;;5091800;27;20222;-69
2023/01/30 05:14:15;;;;;;;14.63;9.17;;;2.60;99.90;;;;;;5092115;27;20219;-68
2023/01/30 05:17:04;;;;;;;16.13;9.13;;;2.60;99.90;;;;;;5096028;27;20229;-67
2023/01/30 05:19:58;;;;;;;14.20;8.80;;;2.60;99.90;;;;;;5099002;27;20246;-68
2023/01/30 05:22:47;;;;;;;13.57;8.73;;;2.60;99.90;;;;;;5098923;27;20352;-69
2023/01/30 05:25:35;;;;;;;15.37;9.50;;;2.50;99.90;;;;;;5095870;27;20225;-69
2023/01/30 05:28:24;;;;;;;16.43;9.73;;;2.50;99.90;;;;;;5097440;27;20242;-69
2023/01/30 05:31:14;;;;;;;14.37;9.40;;;2.40;99.90;;;;;;5094393;27;20223;-67
2023/01/30 05:34:03;;;;;;;14.27;9.23;;;2.50;99.90;;;;;;5097202;27;20273;-68
2023/01/30 05:36:56;;;;;;;15.37;8.80;;;2.60;99.90;;;;;;5093713;27;20245;-68
2023/01/30 05:39:45;;;;;;;13.33;9.20;;;2.50;99.90;;;;;;5119197;27;20845;-69
2023/01/30 05:42:34;;;;;;;16.30;9.53;;;2.40;99.90;;;;;;5095092;27;20214;-68
2023/01/30 05:45:23;;;;;;;15.77;9.53;;;2.40;99.90;;;;;;5092900;27;20229;-67
2023/01/30 05:48:12;;;;;;;15.90;9.70;;;2.40;99.90;;;;;;5094995;27;20777;-67
2023/01/30 05:51:01;;;;;;;14.23;9.73;;;2.60;99.90;;;;;;5094155;27;20222;-68
2023/01/30 05:53:51;;;;;;;15.63;10.47;;;2.60;99.90;;;;;;5092176;27;20226;-68
2023/01/30 05:56:43;;;;;;;15.23;9.80;;;2.30;99.90;;;;;;5098009;27;20228;-68
2023/01/30 05:59:32;;;;;;;17.83;11.00;;;2.20;99.90;;;;;;5106038;27;20559;-67
2023/01/30 06:02:21;;;;;;;15.57;10.20;;;2.30;99.90;;;;;;5097585;27;20746;-67
2023/01/30 06:05:10;;;;;;;15.80;9.40;;;2.40;99.90;;;;;;5100369;27;20276;-67
2023/01/30 06:07:58;;;;;;;16.23;9.97;;;2.40;99.90;;;;;;5091412;27;20810;-68
2023/01/30 06:10:48;;;;;;;14.80;9.37;;;2.50;99.90;;;;;;5093167;27;20714;-68
2023/01/30 06:13:41;;;;;;;16.37;10.43;;;2.40;99.90;;;;;;5088521;27;20226;-68
2023/01/30 06:16:30;;;;;;;16.80;10.30;;;2.40;99.90;;;;;;5095027;27;20287;-67
2023/01/30 06:19:19;;;;;;;15.87;10.10;;;2.50;99.90;;;;;;5096213;27;20309;-67
2023/01/30 06:22:08;;;;;;;16.20;10.53;;;2.40;99.90;;;;;;5121084;27;20305;-67
2023/01/30 06:24:56;;;;;;;16.33;10.37;;;2.30;99.90;;;;;;5088147;27;20677;-67
2023/01/30 06:27:47;;;;;;;15.87;10.13;;;2.40;99.90;;;;;;5093943;27;20239;-68
2023/01/30 06:30:36;;;;;;;16.37;10.67;;;2.40;99.90;;;;;;5086524;27;20233;-66
2023/01/30 06:33:25;;;;;;;15.63;10.40;;;2.20;99.90;;;;;;5117040;27;20667;-66
2023/01/30 06:36:14;;;;;;;16.20;10.87;;;2.30;99.90;;;;;;5092979;27;20217;-69
2023/01/30 06:39:02;;;;;;;17.20;11.37;;;2.40;99.90;;;;;;5090594;28;20228;-67
2023/01/30 06:41:51;;;;;;;16.07;10.43;;;2.30;99.90;;;;;;5094432;27;20232;-67
2023/01/30 06:44:41;;;;;;;16.97;10.67;;;2.30;99.90;;;;;;5088275;28;20232;-68
2023/01/30 06:47:30;;;;;;;17.33;10.87;;;2.50;99.90;;;;;;5097585;28;20222;-68
2023/01/30 06:50:21;;;;;;;17.37;11.07;;;2.40;99.90;;;;;;5093805;27;20795;-67
2023/01/30 06:53:11;;;;;;;16.40;11.07;;;2.60;99.90;;;;;;5089994;28;20283;-71
2023/01/30 06:56:01;;;;;;;17.97;10.43;;;2.60;99.90;;;;;;5098435;27;20253;-69
2023/01/30 06:58:50;;;;;;;15.83;10.37;;;2.70;99.90;;;;;;5100063;27;20794;-68
2023/01/30 07:01:40;;;;;;;17.23;11.70;;;2.70;99.90;;;;;;5093801;27;20589;-69
2023/01/30 07:04:29;;;;;;;20.93;11.70;;;2.70;99.90;;;;;;5100002;27;20317;-68
2023/01/30 07:07:18;;;;;;;17.77;11.80;;;2.70;99.90;;;;;;5093149;27;20721;-69
2023/01/30 07:10:08;;;;;;;16.70;11.00;;;2.80;99.90;;;;;;5091159;27;20271;-70
2023/01/30 07:12:57;;;;;;;17.33;11.47;;;2.80;99.90;;;;;;5093662;27;20250;-72
2023/01/30 07:15:49;;;;;;;16.87;10.70;;;2.70;99.90;;;;;;5094323;28;20231;-72
2023/01/30 07:18:39;;;;;;;17.80;11.90;;;2.70;99.90;;;;;;5094379;27;20253;-71
2023/01/30 07:21:28;;;;;;;19.03;12.07;;;2.60;99.90;;;;;;5101495;27;20303;-71
2023/01/30 07:24:17;;;;;;;20.50;11.80;;;2.50;99.90;;;;;;5092076;27;20306;-70
2023/01/30 07:27:07;;;;;;;18.60;11.97;;;2.60;99.90;;;;;;5121656;27;20624;-71
2023/01/30 07:29:56;;;;;;;16.93;11.13;;;2.50;99.90;;;;;;5092707;28;20226;-73
2023/01/30 07:32:49;;;;;;;20.03;11.87;;;2.60;99.90;;;;;;5092832;27;20222;-71
2023/01/30 07:35:39;;;;;;;18.67;11.77;;;2.70;99.90;;;;;;5097729;27;20219;-72
2023/01/30 07:38:28;;;;;;;19.50;12.20;;;2.70;99.90;;;;;;5090742;27;20317;-73
2023/01/30 07:41:17;;;;;;;19.40;12.33;;;2.70;99.90;;;;;;5116428;27;20257;-73
2023/01/30 07:44:06;;;;;;;18.10;12.70;;;2.70;99.90;;;;;;5089510;28;20253;-72
2023/01/30 07:46:55;;;;;;;17.57;11.83;;;2.60;99.90;;;;;;5087156;28;20223;-71
2023/01/30 07:49:44;;;;;;;20.00;12.60;;;2.60;99.90;;;;;;5089781;27;20647;-73
2023/01/30 07:52:34;;;;;;;22.47;13.33;;;2.60;99.90;;;;;;5090585;27;20763;-72
2023/01/30 07:55:22;;;;;;;20.80;12.90;;;2.60;99.90;;;;;;5093301;27;20301;-72
2023/01/30 07:58:14;;;;;;;23.60;14.63;;;2.50;99.90;;;;;;5099481;27;20234;-72
2023/01/30 08:01:03;;;;;;;21.87;14.13;;;2.30;99.90;;;;;;5097028;28;20821;-72
2023/01/30 08:03:52;;;;;;;25.20;15.17;;;2.20;99.90;;;;;;5091875;27;20226;-72
2023/01/30 08:06:41;;;;;;;22.80;14.50;;;2.20;99.90;;;;;;5095806;27;20226;-72
2023/01/30 08:09:31;;;;;;;28.57;15.70;;;2.30;99.90;;;;;;5089988;27;20896;-71
2023/01/30 08:12:20;;;;;;;25.47;16.30;;;2.20;99.90;;;;;;5096691;27;20728;-71
2023/01/30 08:15:10;;;;;;;26.00;16.43;;;2.10;99.90;;;;;;5092831;27;20245;-72
2023/01/30 08:17:59;;;;;;;28.03;16.73;;;2.10;99.90;;;;;;5097500;27;20278;-73
2023/01/30 08:20:48;;;;;;;26.33;16.80;;;2.10;99.90;;;;;;5094013;27;20242;-72
2023/01/30 08:23:37;;;;;;;29.30;16.83;;;2.10;99.90;;;;;;5096601;27;20535;-72
2023/01/30 08:26:27;;;;;;;27.90;17.57;;;1.70;99.90;;;;;;5096514;27;20441;-71
2023/01/30 08:29:16;;;;;;;28.40;17.80;;;1.80;99.90;;;;;;5086736;27;20228;-71
2023/01/30 08:32:05;;;;;;;29.87;18.40;;;1.70;99.90;;;;;;5095114;27;20304;-71
2023/01/30 08:34:54;;;;;;;31.40;18.43;;;1.80;99.90;;;;;;5086849;28;20592;-72
2023/01/30 08:37:44;;;;;;;29.63;17.60;;;1.80;99.90;;;;;;5098162;27;20228;-71
2023/01/30 08:40:32;;;;;;;27.30;18.17;;;1.90;99.90;;;;;;5099783;27;20561;-73
2023/01/30 08:43:22;;;;;;;34.60;18.60;;;1.80;99.90;;;;;;5091297;27;20219;-72
2023/01/30 08:46:11;;;;;;;31.93;19.60;;;1.70;99.90;;;;;;5091329;27;20396;-72
2023/01/30 08:49:00;;;;;;;32.43;19.23;;;1.80;99.90;;;;;;5093411;28;20274;-72
2023/01/30 08:51:49;;;;;;;29.83;18.60;;;1.90;99.90;;;;;;5097823;27;20231;-72
2023/01/30 08:54:38;;;;;;;32.07;18.97;;;1.80;99.90;;;;;;5090297;27;20225;-73
2023/01/30 08:57:26;;;;;;;31.67;18.37;;;1.90;99.90;;;;;;5095589;28;20233;-72
2023/01/30 09:00:18;;;;;;;32.83;19.30;;;1.90;99.90;;;;;;5091419;28;20225;-71
2023/01/30 09:03:07;;;;;;;33.93;20.70;;;1.60;99.90;;;;;;5120089;27;20237;-71
2023/01/30 09:05:56;;;;;;;36.20;20.47;;;1.40;99.90;;;;;;5087253;27;20253;-69
2023/01/30 09:08:45;;;;;;;37.67;19.90;;;1.60;99.90;;;;;;5116084;27;20220;-70
2023/01/30 09:11:35;;;;;;;34.20;18.93;;;1.70;99.90;;;;;;5090292;28;20705;-68
2023/01/30 09:14:23;;;;;;;30.27;19.13;;;1.80;99.90;;;;;;5091970;27;20222;-68
2023/01/30 09:17:14;;;;;;;30.67;18.90;;;1.70;99.90;;;;;;5086614;27;20309;-67
2023/01/30 09:20:03;;;;;;;32.33;20.67;;;1.80;99.90;;;;;;5092821;28;20233;-67
2023/01/30 09:22:51;;;;;;;36.50;20.50;;;1.60;99.90;;;;;;5090757;27;20233;-68
2023/01/30 09:25:40;;;;;;;35.47;19.87;;;1.60;99.90;;;;;;5085523;27;20554;-67
2023/01/30 09:28:30;;;;;;;33.97;19.70;;;1.50;99.90;;;;;;5092004;27;20228;-68
2023/01/30 09:31:18;;;;;;;31.97;20.20;;;1.80;99.90;;;;;;5097132;27;20213;-66
2023/01/30 09:34:08;;;;;;;34.97;20.00;;;1.80;99.90;;;;;;5093307;28;20227;-66
2023/01/30 09:36:59;;;;;;;33.90;19.40;;;1.90;99.90;;;;;;5088713;27;20316;-65
2023/01/30 09:39:47;;;;;;;32.30;19.57;;;2.00;99.90;;;;;;5092968;27;20238;-66
2023/01/30 09:42:54;;;;;;;30.73;19.43;;;1.80;99.90;;;;;;5087537;28;20218;-67
2023/01/30 09:45:47;;;;;;;29.93;19.23;;;1.90;99.90;;;;;;5098775;27;20229;-66
2023/01/30 09:48:43;;;;;;;30.83;18.53;;;1.90;99.90;;;;;;5097272;27;20383;-66
2023/01/30 09:51:44;;;;;;;30.57;18.30;;;2.00;99.90;;;;;;5089667;27;20222;-66
2023/01/30 09:54:36;;;;;;;32.87;18.33;;;1.90;99.90;;;;;;5089221;27;20231;-67
2023/01/30 09:57:26;;;;;;;40.17;18.70;;;1.90;99.90;;;;;;5103759;27;20284;-68
2023/01/30 10:00:21;;;;;;;29.90;18.73;;;2.00;99.90;;;;;;5094698;27;20712;-68
2023/01/30 10:03:12;;;;;;;29.17;17.67;;;1.90;99.90;;;;;;5096645;27;20220;-64
2023/01/30 10:06:06;;;;;;;31.97;19.63;;;1.70;99.90;;;;;;5095732;27;20232;-65
2023/01/30 10:09:03;;;;;;;26.77;16.97;;;1.90;99.90;;;;;;5094782;27;20354;-65
2023/01/30 10:12:03;;;;;;;28.07;17.37;;;2.10;99.90;;;;;;5103041;27;20233;-66
2023/01/30 10:15:22;;;;;;;27.73;16.90;;;2.20;99.90;;;;;;5095488;27;20860;-65
2023/01/30 10:18:30;;;;;;;26.17;15.90;;;2.20;99.90;;;;;;5123643;27;20642;-66
2023/01/30 10:21:31;;;;;;;26.93;16.43;;;2.30;99.90;;;;;;5092972;27;20230;-67
2023/01/30 10:24:37;;;;;;;27.57;16.60;;;2.40;99.90;;;;;;5092309;27;20293;-66
2023/01/30 10:27:29;;;;;;;26.67;16.53;;;2.40;99.90;;;;;;5096146;27;20228;-66
2023/01/30 10:30:19;;;;;;;24.70;16.07;;;2.40;99.90;;;;;;5090104;27;20638;-67
2023/01/30 10:33:18;;;;;;;23.30;15.17;;;2.40;99.90;;;;;;5097366;28;21059;-64
2023/01/30 10:36:10;;;;;;;23.60;15.43;;;2.30;99.90;;;;;;5091843;28;20232;-66
2023/01/30 10:39:02;;;;;;;24.70;16.07;;;2.40;99.90;;;;;;5098540;27;20367;-63
2023/01/30 10:41:59;;;;;;;25.97;15.03;;;2.40;99.90;;;;;;5093470;27;20560;-63
2023/01/30 10:44:48;;;;;;;24.67;16.10;;;2.30;99.90;;;;;;5094074;27;20264;-69
2023/01/30 10:47:47;;;;;;;24.53;15.43;;;2.40;99.90;;;;;;5090388;27;20237;-64
2023/01/30 10:50:47;;;;;;;23.50;15.37;;;2.40;99.90;;;;;;5095638;28;20227;-64
2023/01/30 10:53:45;;;;;;;24.63;15.57;;;2.40;99.90;;;;;;5099085;27;20253;-64
2023/01/30 10:56:41;;;;;;;23.97;15.07;;;2.30;99.90;;;;;;5090706;28;20242;-65
2023/01/30 10:59:45;;;;;;;23.00;15.60;;;2.30;99.90;;;;;;5122486;27;20243;-68
2023/01/30 11:02:42;;;;;;;25.97;15.07;;;2.30;99.90;;;;;;5090114;27;20229;-69
2023/01/30 11:05:40;;;;;;;22.70;15.57;;;2.30;99.90;;;;;;5094237;28;20229;-71
2023/01/30 11:08:32;;;;;;;24.97;15.20;;;2.40;99.90;;;;;;5104458;27;20692;-69
2023/01/30 11:11:26;;;;;;;27.67;15.50;;;2.50;99.90;;;;;;5095160;27;20381;-68
2023/01/30 11:14:14;;;;;;;28.80;15.80;;;2.60;99.90;;;;;;5103826;27;20230;-67
2023/01/30 11:17:04;;;;;;;24.83;15.63;;;2.60;99.90;;;;;;5091845;27;20725;-69
2023/01/30 11:20:01;;;;;;;24.13;14.60;;;2.60;99.90;;;;;;5089717;28;20231;-68
2023/01/30 11:22:53;;;;;;;28.37;14.77;;;2.70;99.90;;;;;;5088691;28;20271;-67
2023/01/30 11:25:52;;;;;;;21.70;14.03;;;2.80;99.90;;;;;;5091402;27;20230;-69
2023/01/30 11:29:00;;;;;;;21.30;13.90;;;2.80;99.90;;;;;;5090599;27;20872;-68
2023/01/30 11:31:51;;;;;;;18.43;13.33;;;2.90;99.90;;;;;;5090005;27;20249;-65
2023/01/30 11:34:43;;;;;;;21.03;12.33;;;2.80;99.90;;;;;;5107082;27;20261;-65
2023/01/30 11:37:33;;;;;;;21.90;12.90;;;2.90;99.90;;;;;;5088322;27;20951;-69
2023/01/30 11:40:29;;;;;;;19.23;12.47;;;2.90;99.90;;;;;;5100899;27;20229;-66
2023/01/30 11:43:19;;;;;;;19.47;12.70;;;2.90;99.90;;;;;;5095644;27;20237;-66
2023/01/30 11:46:10;;;;;;;19.50;11.87;;;2.90;99.90;;;;;;5111086;27;20371;-66
2023/01/30 11:49:05;;;;;;;17.77;12.50;;;2.90;99.90;;;;;;5117143;27;20419;-66
2023/01/30 11:52:18;;;;;;;18.47;12.87;;;3.00;99.90;;;;;;5092865;27;20223;-67
2023/01/30 11:55:11;;;;;;;21.33;12.87;;;3.10;99.90;;;;;;5091994;27;20605;-69
2023/01/30 11:58:02;;;;;;;17.43;12.13;;;3.10;99.90;;;;;;5087935;28;20270;-66
2023/01/30 12:00:51;;;;;;;19.60;12.10;;;3.10;99.90;;;;;;5097198;27;20226;-65
2023/01/30 12:03:47;;;;;;;17.13;12.50;;;3.10;99.90;;;;;;5090213;27;20596;-66
2023/01/30 12:06:38;;;;;;;18.17;12.70;;;3.10;99.90;;;;;;5090500;28;20629;-67
2023/01/30 12:09:33;;;;;;;19.67;12.13;;;3.10;99.90;;;;;;5118462;27;20849;-67
2023/01/30 12:12:31;;;;;;;17.03;11.20;;;3.10;99.90;;;;;;5085571;28;20953;-65
2023/01/30 12:15:24;;;;;;;16.67;11.60;;;3.00;99.90;;;;;;5090622;27;20528;-66
2023/01/30 12:18:21;;;;;;;17.13;11.77;;;3.00;99.90;;;;;;5085571;27;20241;-66
2023/01/30 12:21:21;;;;;;;17.97;12.57;;;3.00;99.90;;;;;;5091782;28;20234;-66
2023/01/30 12:24:26;;;;;;;16.13;11.23;;;3.10;99.90;;;;;;5103526;27;20737;-66
2023/01/30 12:27:24;;;;;;;16.23;12.20;;;3.10;99.90;;;;;;5093528;27;20226;-66
2023/01/30 12:30:24;;;;;;;17.37;11.90;;;3.10;99.90;;;;;;5099975;27;20692;-65
2023/01/30 12:33:15;;;;;;;19.37;12.40;;;3.10;99.90;;;;;;5091096;27;20223;-67
2023/01/30 12:36:16;;;;;;;20.17;12.83;;;3.20;99.90;;;;;;5091157;27;20224;-66
2023/01/30 12:39:14;;;;;;;16.93;12.37;;;3.20;99.90;;;;;;5089975;27;20225;-66
2023/01/30 12:42:31;;;;;;;17.37;12.37;;;3.20;99.90;;;;;;5117003;27;20236;-65
2023/01/30 12:45:22;;;;;;;19.97;12.53;;;3.30;99.90;;;;;;5087136;27;20226;-66
2023/01/30 12:48:33;;;;;;;16.60;11.50;;;3.30;99.90;;;;;;5086536;27;20234;-66
2023/01/30 12:51:57;;;;;;;18.33;12.30;;;3.20;99.90;;;;;;5085089;27;20244;-66
2023/01/30 12:54:56;;;;;;;18.60;12.20;;;3.30;99.90;;;;;;5088229;27;20226;-65
2023/01/30 12:57:52;;;;;;;20.00;12.17;;;3.30;99.90;;;;;;5090371;27;20230;-65
2023/01/30 13:00:58;;;;;;;19.70;12.83;;;3.40;99.90;;;;;;5087777;27;20230;-66
2023/01/30 13:03:55;;;;;;;21.57;12.27;;;3.30;99.90;;;;;;5086182;27;20720;-66
2023/01/30 13:07:01;;;;;;;17.80;12.13;;;3.40;99.90;;;;;;5088817;27;20219;-66
2023/01/30 13:10:04;;;;;;;18.33;11.83;;;3.40;99.90;;;;;;5085119;28;20233;-66
2023/01/30 13:13:07;;;;;;;20.90;12.87;;;3.40;99.90;;;;;;5090124;28;20223;-65
2023/01/30 13:16:06;;;;;;;18.73;11.73;;;3.40;99.90;;;;;;5087665;27;20240;-66
2023/01/30 13:18:59;;;;;;;20.80;13.07;;;3.40;99.90;;;;;;5090268;27;20530;-65
2023/01/30 13:21:53;;;;;;;20.33;13.13;;;3.30;99.90;;;;;;5093150;28;20720;-66
2023/01/30 13:24:53;;;;;;;17.33;12.23;;;3.40;99.90;;;;;;5088104;27;20215;-66
2023/01/30 13:27:53;;;;;;;30.63;14.13;;;3.50;99.90;;;;;;5093142;27;20709;-66
2023/01/30 13:30:45;;;;;;;19.53;12.77;;;3.50;99.90;;;;;;5087862;28;20253;-66
2023/01/30 13:33:39;;;;;;;19.90;13.63;;;3.50;99.90;;;;;;5093206;27;20227;-66
2023/01/30 13:36:37;;;;;;;19.13;13.60;;;3.40;99.90;;;;;;5094888;27;20312;-67
2023/01/30 13:39:34;;;;;;;21.60;13.03;;;3.40;99.90;;;;;;5092731;27;21226;-67
2023/01/30 13:42:30;;;;;;;21.90;14.40;;;3.30;99.90;;;;;;5090884;27;20652;-66
2023/01/30 13:45:23;;;;;;;23.00;14.93;;;3.50;99.90;;;;;;5098451;27;20226;-66
2023/01/30 13:48:25;;;;;;;21.87;13.93;;;3.40;99.90;;;;;;5088882;27;20589;-64
2023/01/30 13:51:32;;;;;;;21.00;13.67;;;3.50;99.90;;;;;;5092444;27;20222;-66
2023/01/30 13:54:33;;;;;;;23.37;14.53;;;3.40;99.90;;;;;;5089583;28;20226;-66
2023/01/30 13:57:31;;;;;;;21.17;13.60;;;3.40;99.90;;;;;;5093755;28;20234;-67
2023/01/30 14:00:31;;;;;;;24.83;14.40;;;3.40;99.90;;;;;;5116999;27;20399;-67
2023/01/30 14:03:29;;;;;;;22.43;15.90;;;3.50;99.90;;;;;;5097323;27;20745;-67
2023/01/30 14:06:39;;;;;;;23.63;14.53;;;3.60;99.90;;;;;;5095207;27;20252;-67
2023/01/30 14:09:32;;;;;;;20.17;14.13;;;3.60;99.90;;;;;;5100970;27;20639;-65
2023/01/30 14:12:24;;;;;;;24.93;14.53;;;3.60;99.90;;;;;;5097979;27;20237;-67
2023/01/30 14:15:25;;;;;;;24.50;15.40;;;3.60;99.90;;;;;;5104741;27;20301;-67
2023/01/30 14:18:23;;;;;;;21.70;15.37;;;3.50;99.90;;;;;;5106429;27;20662;-66
2023/01/30 14:21:16;;;;;;;20.10;14.40;;;3.70;99.90;;;;;;5092541;27;20215;-65
2023/01/30 14:24:06;;;;;;;21.23;14.47;;;3.70;99.90;;;;;;5092355;28;20235;-66
2023/01/30 14:27:01;;;;;;;22.00;14.57;;;3.70;99.90;;;;;;5096548;27;20222;-66
2023/01/30 14:29:57;;;;;;;23.10;14.30;;;3.60;99.90;;;;;;5091591;27;20301;-66
2023/01/30 14:32:54;;;;;;;20.23;13.93;;;3.60;99.90;;;;;;5108684;27;20647;-66
2023/01/30 14:35:43;;;;;;;21.87;13.10;;;3.70;99.90;;;;;;5091977;28;20655;-68
2023/01/30 14:38:34;;;;;;;21.50;14.17;;;3.70;99.90;;;;;;5094088;27;20232;-68
2023/01/30 14:41:31;;;;;;;18.60;13.30;;;3.80;99.90;;;;;;5127231;27;20226;-65
2023/01/30 14:44:53;;;;;;;19.33;15.20;;;3.80;99.90;;;;;;5095651;27;20220;-66
2023/01/30 14:47:42;;;;;;;21.93;15.17;;;3.80;99.90;;;;;;5093885;27;20227;-65
2023/01/30 14:50:34;;;;;;;21.53;14.30;;;3.80;99.90;;;;;;5099296;27;20246;-67
2023/01/30 14:53:24;;;;;;;22.43;14.40;;;3.80;99.90;;;;;;5092555;27;20219;-66
2023/01/30 14:56:16;;;;;;;20.17;14.73;;;3.80;99.90;;;;;;5093070;27;20216;-66